createdAt,value
2019-06-27T00:00:27.071Z,26.40
2019-06-27T00:02:54.482Z,26.30
2019-06-27T00:05:21.919Z,26.20
2019-06-27T00:07:49.125Z,26.20
2019-06-27T00:10:20.103Z,26.20
2019-06-27T00:12:47.256Z,26.10
2019-06-27T00:15:14.784Z,26.10
2019-06-27T00:17:41.990Z,26.00
2019-06-27T00:20:10.847Z,26.00
2019-06-27T00:22:41.081Z,26.00
2019-06-27T00:25:08.102Z,25.90
2019-06-27T00:27:35.570Z,25.90
2019-06-27T00:30:03.431Z,25.80
2019-06-27T00:32:31.220Z,25.80
2019-06-27T00:34:59.422Z,25.70
2019-06-27T00:37:27.307Z,25.70
2019-06-27T00:39:54.714Z,25.70
2019-06-27T00:42:22.054Z,25.60
2019-06-27T00:44:49.258Z,25.50
2019-06-27T00:47:17.012Z,25.50
2019-06-27T00:49:46.544Z,25.50
2019-06-27T00:52:13.908Z,25.40
2019-06-27T00:54:41.129Z,25.40
2019-06-27T00:57:13.859Z,25.40
2019-06-27T00:59:37.623Z,25.40
2019-06-27T01:02:05.040Z,25.30
2019-06-27T01:04:32.274Z,25.30
2019-06-27T01:07:00.929Z,25.20
2019-06-27T01:09:28.377Z,25.20
2019-06-27T01:11:55.761Z,25.10
2019-06-27T01:14:22.335Z,25.10
2019-06-27T01:16:49.738Z,25.10
2019-06-27T01:19:17.165Z,25.00
2019-06-27T01:21:44.522Z,25.00
2019-06-27T01:24:12.323Z,25.00
2019-06-27T01:26:53.606Z,24.90
2019-06-27T01:29:36.472Z,24.90
2019-06-27T01:32:03.830Z,24.80
2019-06-27T01:34:31.088Z,24.70
2019-06-27T01:36:59.020Z,24.70
2019-06-27T01:39:26.152Z,24.70
2019-06-27T01:41:54.743Z,24.60
2019-06-27T01:44:45.853Z,24.60
2019-06-27T01:47:13.306Z,24.50
2019-06-27T01:49:40.564Z,24.40
2019-06-27T01:52:08.011Z,24.40
2019-06-27T01:54:35.222Z,24.40
2019-06-27T01:57:02.494Z,24.30
2019-06-27T01:59:30.183Z,24.30
2019-06-27T02:01:57.647Z,24.30
2019-06-27T02:04:25.213Z,24.20
2019-06-27T02:06:52.768Z,24.10
2019-06-27T02:09:20.860Z,24.10
2019-06-27T02:11:48.076Z,24.10
2019-06-27T02:14:15.615Z,24.00
2019-06-27T02:16:46.120Z,24.00
2019-06-27T02:19:13.331Z,24.00
2019-06-27T02:21:40.615Z,23.90
2019-06-27T02:24:07.799Z,23.90
2019-06-27T02:26:36.116Z,23.90
2019-06-27T02:29:03.328Z,23.80
2019-06-27T02:31:45.251Z,23.80
2019-06-27T02:34:12.334Z,23.80
2019-06-27T02:36:39.385Z,23.70
2019-06-27T02:39:06.824Z,23.70
2019-06-27T02:41:37.454Z,23.70
2019-06-27T02:44:05.100Z,23.60
2019-06-27T02:46:32.473Z,23.60
2019-06-27T02:49:00.275Z,23.60
2019-06-27T02:51:27.396Z,23.50
2019-06-27T02:53:54.608Z,23.50
2019-06-27T02:56:21.707Z,23.50
2019-06-27T02:58:50.743Z,23.40
2019-06-27T03:01:18.147Z,23.40
2019-06-27T03:03:45.485Z,23.40
2019-06-27T03:06:12.654Z,23.40
2019-06-27T03:08:39.771Z,23.30
2019-06-27T03:11:06.904Z,23.20
2019-06-27T03:13:34.352Z,23.20
2019-06-27T03:16:01.873Z,23.20
2019-06-27T03:18:29.092Z,23.20
2019-06-27T03:20:56.337Z,23.10
2019-06-27T03:23:23.577Z,23.10
2019-06-27T03:25:50.754Z,23.10
2019-06-27T03:28:17.884Z,23.00
2019-06-27T03:30:45.095Z,23.00
2019-06-27T03:33:12.767Z,23.00
2019-06-27T03:35:40.073Z,22.90
2019-06-27T03:38:09.278Z,22.90
2019-06-27T03:40:36.649Z,22.90
2019-06-27T03:43:03.763Z,22.90
2019-06-27T03:45:31.115Z,22.90
2019-06-27T03:48:01.366Z,22.80
2019-06-27T03:50:28.739Z,22.90
2019-06-27T03:52:56.114Z,22.90
2019-06-27T03:55:23.304Z,22.90
2019-06-27T03:57:50.492Z,22.90
2019-06-27T04:00:26.514Z,22.90
2019-06-27T04:02:54.121Z,22.90
2019-06-27T04:05:21.153Z,22.90
2019-06-27T04:07:48.214Z,22.90
2019-06-27T04:10:17.205Z,23.00
2019-06-27T04:12:44.859Z,23.00
2019-06-27T04:15:12.435Z,23.00
2019-06-27T04:17:39.427Z,23.10
2019-06-27T04:20:06.554Z,23.20
2019-06-27T04:22:33.401Z,23.30
2019-06-27T04:25:00.422Z,23.50
2019-06-27T04:27:28.237Z,23.60
2019-06-27T04:29:55.389Z,23.80
2019-06-27T04:32:22.661Z,23.80
2019-06-27T04:34:49.918Z,23.90
2019-06-27T04:37:17.033Z,24.10
2019-06-27T04:39:44.537Z,24.20
2019-06-27T04:42:12.404Z,24.40
2019-06-27T04:44:39.715Z,24.50
2019-06-27T04:47:07.400Z,24.60
2019-06-27T04:49:35.000Z,24.70
2019-06-27T04:52:02.183Z,24.80
2019-06-27T04:54:29.492Z,24.90
2019-06-27T04:57:00.782Z,25.10
2019-06-27T04:59:28.236Z,25.20
2019-06-27T05:01:55.380Z,25.30
2019-06-27T05:04:22.468Z,25.50
2019-06-27T05:06:49.759Z,25.70
2019-06-27T05:09:16.773Z,25.80
2019-06-27T05:11:43.691Z,25.90
2019-06-27T05:14:10.683Z,25.90
2019-06-27T05:16:39.071Z,25.90
2019-06-27T05:19:06.672Z,25.70
2019-06-27T05:21:33.817Z,25.80
2019-06-27T05:24:01.501Z,26.10
2019-06-27T05:26:28.799Z,26.30
2019-06-27T05:28:55.909Z,26.40
2019-06-27T05:31:22.925Z,26.50
2019-06-27T05:33:50.160Z,26.60
2019-06-27T05:36:17.065Z,26.70
2019-06-27T05:38:44.138Z,26.80
2019-06-27T05:41:10.990Z,27.10
2019-06-27T05:43:38.187Z,27.40
2019-06-27T05:46:05.329Z,27.40
2019-06-27T05:48:32.424Z,27.50
2019-06-27T05:50:59.267Z,27.30
2019-06-27T05:53:26.259Z,27.10
2019-06-27T05:55:53.185Z,26.90
2019-06-27T05:58:20.703Z,26.60
2019-06-27T06:00:47.871Z,26.50
2019-06-27T06:03:14.724Z,26.30
2019-06-27T06:05:41.566Z,26.30
2019-06-27T06:08:08.671Z,26.30
2019-06-27T06:10:35.806Z,26.30
2019-06-27T06:13:02.746Z,26.50
2019-06-27T06:15:30.111Z,26.70
2019-06-27T06:17:57.397Z,27.60
2019-06-27T06:20:24.811Z,28.40
2019-06-27T06:22:52.376Z,29.00
2019-06-27T06:25:19.897Z,29.40
2019-06-27T06:27:46.894Z,30.10
2019-06-27T06:30:14.681Z,30.80
2019-06-27T06:32:41.543Z,31.00
2019-06-27T06:35:08.705Z,31.40
2019-06-27T06:37:35.863Z,31.70
2019-06-27T06:40:03.765Z,31.70
2019-06-27T06:42:31.162Z,32.10
2019-06-27T06:44:58.361Z,32.20
2019-06-27T06:47:25.271Z,32.10
2019-06-27T06:49:52.412Z,31.50
2019-06-27T06:52:19.813Z,31.10
2019-06-27T06:54:47.463Z,31.00
2019-06-27T06:57:15.460Z,31.30
2019-06-27T06:59:42.559Z,31.40
2019-06-27T07:02:13.106Z,31.60
2019-06-27T07:04:40.215Z,31.40
2019-06-27T07:07:07.555Z,31.10
2019-06-27T07:09:34.981Z,30.90
2019-06-27T07:12:02.508Z,30.70
2019-06-27T07:14:29.596Z,31.00
2019-06-27T07:16:57.103Z,31.70
2019-06-27T07:19:24.586Z,32.40
2019-06-27T07:21:51.429Z,33.30
2019-06-27T07:24:18.686Z,33.70
2019-06-27T07:26:46.103Z,34.00
2019-06-27T07:29:13.475Z,34.10
2019-06-27T07:31:40.964Z,33.50
2019-06-27T07:34:08.551Z,33.10
2019-06-27T07:36:35.408Z,32.80
2019-06-27T07:39:04.590Z,32.80
2019-06-27T07:41:31.739Z,32.70
2019-06-27T07:43:58.848Z,32.50
2019-06-27T07:46:26.223Z,32.20
2019-06-27T07:48:53.499Z,32.10
2019-06-27T07:51:20.465Z,32.30
2019-06-27T07:53:47.310Z,32.40
2019-06-27T07:56:14.913Z,32.20
2019-06-27T07:58:42.079Z,32.70
2019-06-27T08:01:09.410Z,34.10
2019-06-27T08:03:36.606Z,35.20
2019-06-27T08:06:03.574Z,36.20
2019-06-27T08:08:31.557Z,36.90
2019-06-27T08:10:58.846Z,37.30
2019-06-27T08:13:25.900Z,37.50
2019-06-27T08:15:52.911Z,37.80
2019-06-27T08:18:20.702Z,38.30
2019-06-27T08:20:47.647Z,38.70
2019-06-27T08:23:15.281Z,38.80
2019-06-27T08:25:42.520Z,38.90
2019-06-27T08:28:09.446Z,39.20
2019-06-27T08:30:36.749Z,39.00
2019-06-27T08:33:04.144Z,39.00
2019-06-27T08:35:33.558Z,39.00
2019-06-27T08:38:00.454Z,39.00
2019-06-27T08:40:27.687Z,38.70
2019-06-27T08:42:55.203Z,38.80
2019-06-27T08:45:22.438Z,38.90
2019-06-27T08:47:49.874Z,38.80
2019-06-27T08:50:19.069Z,39.20
2019-06-27T08:52:46.022Z,39.60
2019-06-27T08:55:13.494Z,39.80
2019-06-27T08:57:40.627Z,39.40
2019-06-27T09:00:08.343Z,39.30
2019-06-27T09:02:35.941Z,39.70
2019-06-27T09:05:03.526Z,40.20
2019-06-27T09:07:30.960Z,40.60
2019-06-27T09:09:57.812Z,40.80
2019-06-27T09:12:24.700Z,41.50
2019-06-27T09:14:53.046Z,41.80
2019-06-27T09:17:20.280Z,41.90
2019-06-27T09:19:47.311Z,41.80
2019-06-27T09:22:14.525Z,41.90
2019-06-27T09:24:41.920Z,42.00
2019-06-27T09:27:09.127Z,42.30
2019-06-27T09:29:35.989Z,42.60
2019-06-27T09:32:03.304Z,42.60
2019-06-27T09:34:30.483Z,42.90
2019-06-27T09:36:57.433Z,42.80
2019-06-27T09:39:26.998Z,42.80
2019-06-27T09:41:53.457Z,42.90
2019-06-27T09:44:20.793Z,42.70
2019-06-27T09:46:47.891Z,42.80
2019-06-27T09:49:15.242Z,43.20
2019-06-27T09:51:42.486Z,43.40
2019-06-27T09:54:09.364Z,43.30
2019-06-27T09:56:36.514Z,43.20
2019-06-27T09:59:04.663Z,43.60
2019-06-27T10:01:31.873Z,43.90
2019-06-27T10:03:58.947Z,44.20
2019-06-27T10:06:26.365Z,44.60
2019-06-27T10:08:53.749Z,44.50
2019-06-27T10:11:21.187Z,44.40
2019-06-27T10:13:48.228Z,44.40
2019-06-27T10:16:15.789Z,44.50
2019-06-27T10:18:42.752Z,44.10
2019-06-27T10:21:09.968Z,44.00
2019-06-27T10:23:37.085Z,44.00
2019-06-27T10:26:04.399Z,44.10
2019-06-27T10:28:32.568Z,44.40
2019-06-27T10:30:59.646Z,45.10
2019-06-27T10:33:26.842Z,45.10
2019-06-27T10:35:54.036Z,44.40
2019-06-27T10:38:21.409Z,44.20
2019-06-27T10:40:48.595Z,44.30
2019-06-27T10:43:16.160Z,44.30
2019-06-27T10:45:43.583Z,44.40
2019-06-27T10:48:11.237Z,44.40
2019-06-27T10:50:38.465Z,44.30
2019-06-27T10:53:05.830Z,44.30
2019-06-27T10:55:32.991Z,44.40
2019-06-27T10:58:00.260Z,44.40
2019-06-27T11:00:27.851Z,44.50
2019-06-27T11:02:55.041Z,44.60
2019-06-27T11:05:22.640Z,44.50
2019-06-27T11:07:50.164Z,44.20
2019-06-27T11:10:17.582Z,42.60
2019-06-27T11:12:45.300Z,43.00
2019-06-27T11:15:13.060Z,43.70
2019-06-27T11:17:41.915Z,44.40
2019-06-27T11:20:09.929Z,44.40
2019-06-27T11:22:37.501Z,45.10
2019-06-27T11:25:04.855Z,45.70
2019-06-27T11:27:31.953Z,45.30
2019-06-27T11:29:59.543Z,45.60
2019-06-27T11:32:26.736Z,45.60
2019-06-27T11:34:53.726Z,45.50
2019-06-27T11:37:21.090Z,45.40
2019-06-27T11:39:47.921Z,45.60
2019-06-27T11:42:14.969Z,46.10
2019-06-27T11:44:42.147Z,46.50
2019-06-27T11:47:09.557Z,46.90
2019-06-27T11:49:37.763Z,46.90
2019-06-27T11:52:04.932Z,46.50
2019-06-27T11:54:32.021Z,46.30
2019-06-27T11:56:59.173Z,46.10
2019-06-27T11:59:26.489Z,46.10
2019-06-27T12:01:53.870Z,46.20
2019-06-27T12:04:20.978Z,46.30
2019-06-27T12:06:49.014Z,46.40
2019-06-27T12:09:16.163Z,46.10
2019-06-27T12:11:43.274Z,46.40
2019-06-27T12:14:10.213Z,45.90
2019-06-27T12:16:37.895Z,46.00
2019-06-27T12:19:05.098Z,46.00
2019-06-27T12:21:31.957Z,46.20
2019-06-27T12:23:58.831Z,46.40
2019-06-27T12:26:26.590Z,46.50
2019-06-27T12:28:53.827Z,46.70
2019-06-27T12:31:21.959Z,46.90
2019-06-27T12:34:05.194Z,46.60
2019-06-27T12:36:18.482Z,46.90
2019-06-27T12:38:45.993Z,47.10
2019-06-27T12:41:13.796Z,47.30
2019-06-27T12:43:41.133Z,47.40
2019-06-27T12:46:08.424Z,47.30
2019-06-27T12:48:37.116Z,47.20
2019-06-27T12:51:05.291Z,47.50
2019-06-27T12:53:32.614Z,47.90
2019-06-27T12:56:00.644Z,48.00
2019-06-27T12:58:30.938Z,48.00
2019-06-27T13:00:59.200Z,47.90
2019-06-27T13:03:26.443Z,47.60
2019-06-27T13:05:53.838Z,47.30
2019-06-27T13:08:20.945Z,46.80
2019-06-27T13:10:48.430Z,47.00
2019-06-27T13:13:15.765Z,47.00
2019-06-27T13:15:43.082Z,47.30
2019-06-27T13:18:10.363Z,47.50
2019-06-27T13:20:37.811Z,47.80
2019-06-27T13:23:04.862Z,48.10
2019-06-27T13:25:34.364Z,48.60
2019-06-27T13:28:00.954Z,48.70
2019-06-27T13:30:28.816Z,48.60
2019-06-27T13:32:55.921Z,48.60
2019-06-27T13:35:23.699Z,48.70
2019-06-27T13:37:51.140Z,48.50
2019-06-27T13:40:18.752Z,48.60
2019-06-27T13:42:45.944Z,48.60
2019-06-27T13:45:13.149Z,47.70
2019-06-27T13:47:40.124Z,47.60
2019-06-27T13:50:07.789Z,47.70
2019-06-27T13:52:34.605Z,47.70
2019-06-27T13:55:01.788Z,47.50
2019-06-27T13:57:29.292Z,47.50
2019-06-27T13:59:56.461Z,47.40
2019-06-27T14:02:24.140Z,47.80
2019-06-27T14:04:57.268Z,48.10
2019-06-27T14:07:21.056Z,48.20
2019-06-27T14:09:55.520Z,47.80
2019-06-27T14:12:18.072Z,47.40
2019-06-27T14:14:59.349Z,47.10
2019-06-27T14:17:14.571Z,46.70
2019-06-27T14:19:41.723Z,46.00
2019-06-27T14:22:14.681Z,45.60
2019-06-27T14:24:38.284Z,45.50
2019-06-27T14:27:06.811Z,45.80
2019-06-27T14:29:34.305Z,45.80
2019-06-27T14:32:01.221Z,45.30
2019-06-27T14:34:28.868Z,44.90
2019-06-27T14:36:57.445Z,44.80
2019-06-27T14:39:24.423Z,45.00
2019-06-27T14:41:51.571Z,45.30
2019-06-27T14:44:18.980Z,45.50
2019-06-27T14:46:46.459Z,45.90
2019-06-27T14:49:13.718Z,45.90
2019-06-27T14:51:41.064Z,45.40
2019-06-27T14:54:09.853Z,44.50
2019-06-27T14:56:37.672Z,44.10
2019-06-27T14:59:04.659Z,43.30
2019-06-27T15:01:31.740Z,43.30
2019-06-27T15:03:58.774Z,43.20
2019-06-27T15:06:25.946Z,43.20
2019-06-27T15:08:53.041Z,43.60
2019-06-27T15:11:20.389Z,43.80
2019-06-27T15:13:48.018Z,44.10
2019-06-27T15:16:16.372Z,44.50
2019-06-27T15:18:44.177Z,44.70
2019-06-27T15:21:11.512Z,44.80
2019-06-27T15:23:38.784Z,44.50
2019-06-27T15:26:06.235Z,43.50
2019-06-27T15:28:34.371Z,42.50
2019-06-27T15:31:02.456Z,41.70
2019-06-27T15:33:29.804Z,40.80
2019-06-27T15:35:56.658Z,40.80
2019-06-27T15:38:23.758Z,41.50
2019-06-27T15:40:51.064Z,42.00
2019-06-27T15:43:18.096Z,42.20
2019-06-27T15:45:45.492Z,42.10
2019-06-27T15:48:12.771Z,42.40
2019-06-27T15:50:40.147Z,42.70
2019-06-27T15:53:08.121Z,42.20
2019-06-27T15:55:36.556Z,42.40
2019-06-27T15:58:03.749Z,42.70
2019-06-27T16:00:31.680Z,41.20
2019-06-27T16:02:58.666Z,39.80
2019-06-27T16:05:26.019Z,39.30
2019-06-27T16:07:53.492Z,39.70
2019-06-27T16:10:20.950Z,40.10
2019-06-27T16:12:48.352Z,40.40
2019-06-27T16:15:17.247Z,40.50
2019-06-27T16:17:44.594Z,40.00
2019-06-27T16:20:12.407Z,39.70
2019-06-27T16:22:39.557Z,38.60
2019-06-27T16:25:07.194Z,38.90
2019-06-27T16:27:34.762Z,38.90
2019-06-27T16:30:02.330Z,38.90
2019-06-27T16:32:30.040Z,38.90
2019-06-27T16:34:57.253Z,39.10
2019-06-27T16:37:24.574Z,39.20
2019-06-27T16:39:52.317Z,38.80
2019-06-27T16:42:19.691Z,38.70
2019-06-27T16:44:47.434Z,38.30
2019-06-27T16:47:14.421Z,38.10
2019-06-27T16:49:41.294Z,38.10
2019-06-27T16:52:08.425Z,37.90
2019-06-27T16:54:36.062Z,37.30
2019-06-27T16:57:03.885Z,36.50
2019-06-27T16:59:31.716Z,36.20
2019-06-27T17:01:58.960Z,35.80
2019-06-27T17:04:26.083Z,35.30
2019-06-27T17:06:53.424Z,34.70
2019-06-27T17:09:20.819Z,34.20
2019-06-27T17:11:48.031Z,33.80
2019-06-27T17:14:15.967Z,33.30
2019-06-27T17:16:43.132Z,33.10
2019-06-27T17:19:10.862Z,32.90
2019-06-27T17:21:39.122Z,32.60
2019-06-27T17:24:06.567Z,32.40
2019-06-27T17:26:33.981Z,32.20
2019-06-27T17:29:01.349Z,32.10
2019-06-27T17:31:28.386Z,31.90
2019-06-27T17:33:55.892Z,31.80
2019-06-27T17:36:23.823Z,31.60
2019-06-27T17:38:51.035Z,31.50
2019-06-27T17:41:18.057Z,31.40
2019-06-27T17:43:45.513Z,31.20
2019-06-27T17:46:12.709Z,31.10
2019-06-27T17:48:40.133Z,31.00
2019-06-27T17:51:08.354Z,30.90
2019-06-27T17:53:35.841Z,30.80
2019-06-27T17:56:03.219Z,30.70
2019-06-27T17:58:30.530Z,30.60
2019-06-27T18:00:58.266Z,30.50
2019-06-27T18:03:25.439Z,30.30
2019-06-27T18:05:52.303Z,30.20
2019-06-27T18:08:19.614Z,30.10
2019-06-27T18:10:46.476Z,30.00
2019-06-27T18:13:13.761Z,29.80
2019-06-27T18:15:41.457Z,29.70
2019-06-27T18:18:08.528Z,29.60
2019-06-27T18:20:37.204Z,29.50
2019-06-27T18:23:04.479Z,29.30
2019-06-27T18:25:31.855Z,29.20
2019-06-27T18:27:59.029Z,29.10
2019-06-27T18:30:26.424Z,29.00
2019-06-27T18:32:54.643Z,28.90
2019-06-27T18:35:22.443Z,28.80
2019-06-27T18:37:49.481Z,28.60
2019-06-27T18:40:16.927Z,28.50
2019-06-27T18:42:44.263Z,28.50
2019-06-27T18:45:11.729Z,28.30
2019-06-27T18:47:38.935Z,28.20
2019-06-27T18:50:06.771Z,28.10
2019-06-27T18:52:34.480Z,28.00
2019-06-27T18:55:02.087Z,27.90
2019-06-27T18:57:29.267Z,27.80
2019-06-27T18:59:57.749Z,27.70
2019-06-27T19:02:24.748Z,27.50
2019-06-27T19:04:51.612Z,27.40
2019-06-27T19:07:18.981Z,27.30
2019-06-27T19:09:46.439Z,27.20
2019-06-27T19:12:13.632Z,27.00
2019-06-27T19:14:40.548Z,26.90
2019-06-27T19:17:07.879Z,26.80
2019-06-27T19:19:37.314Z,26.60
2019-06-27T19:22:24.529Z,26.60
2019-06-27T19:25:11.759Z,26.40
2019-06-27T19:27:39.355Z,26.30
2019-06-27T19:30:08.126Z,26.20
2019-06-27T19:32:35.135Z,26.10
2019-06-27T19:35:02.791Z,26.00
2019-06-27T19:37:29.755Z,25.90
2019-06-27T19:39:56.921Z,25.80
2019-06-27T19:42:23.743Z,25.60
2019-06-27T19:44:51.283Z,25.50
2019-06-27T19:47:18.596Z,25.40
2019-06-27T19:49:46.066Z,25.30
2019-06-27T19:52:13.590Z,25.20
2019-06-27T19:54:40.707Z,25.10
2019-06-27T19:57:08.657Z,25.00
2019-06-27T19:59:36.247Z,24.90
2019-06-27T20:02:03.788Z,24.80
2019-06-27T20:04:33.908Z,24.60
2019-06-27T20:06:59.998Z,24.50
2019-06-27T20:09:27.484Z,24.40
2019-06-27T20:11:54.873Z,24.30
2019-06-27T20:14:22.191Z,24.20
2019-06-27T20:16:50.179Z,24.10
2019-06-27T20:19:17.574Z,24.00
2019-06-27T20:21:45.196Z,23.90
2019-06-27T20:24:12.731Z,23.80
2019-06-27T20:26:39.766Z,23.70
2019-06-27T20:29:07.337Z,23.60
2019-06-27T20:31:34.484Z,23.60
2019-06-27T20:34:01.296Z,23.50
2019-06-27T20:36:28.524Z,23.40
2019-06-27T20:38:55.763Z,23.30
2019-06-27T20:41:23.336Z,23.20
2019-06-27T20:43:50.463Z,23.20
2019-06-27T20:46:17.437Z,23.10
2019-06-27T20:48:44.783Z,23.00
2019-06-27T20:51:12.364Z,22.90
2019-06-27T20:53:40.074Z,22.90
2019-06-27T20:56:07.285Z,22.80
2019-06-27T20:58:34.897Z,22.70
2019-06-27T21:01:03.478Z,22.70
2019-06-27T21:03:30.439Z,22.60
2019-06-27T21:05:57.632Z,22.50
2019-06-27T21:08:24.492Z,22.50
2019-06-27T21:10:51.353Z,22.40
2019-06-27T21:13:18.474Z,22.40
2019-06-27T21:15:45.859Z,22.30
2019-06-27T21:18:13.244Z,22.30
2019-06-27T21:20:41.158Z,22.30
2019-06-27T21:23:08.493Z,22.20
2019-06-27T21:25:35.864Z,22.20
2019-06-27T21:28:03.122Z,22.10
2019-06-27T21:30:30.225Z,22.00
2019-06-27T21:32:57.358Z,22.00
2019-06-27T21:35:24.497Z,21.90
2019-06-27T21:37:51.659Z,21.80
2019-06-27T21:40:19.703Z,21.80
2019-06-27T21:42:47.073Z,21.70
2019-06-27T21:45:14.723Z,21.70
2019-06-27T21:47:42.644Z,21.60
2019-06-27T21:50:11.260Z,21.50
2019-06-27T21:52:41.061Z,21.50
2019-06-27T21:55:11.348Z,21.40
2019-06-27T21:57:41.281Z,21.40
2019-06-27T22:00:29.886Z,21.30
2019-06-27T22:03:00.192Z,21.30
2019-06-27T22:05:27.955Z,21.20
2019-06-27T22:07:55.691Z,21.10
2019-06-27T22:10:23.108Z,21.10
2019-06-27T22:12:52.658Z,21.00
2019-06-27T22:15:20.156Z,21.00
2019-06-27T22:17:47.515Z,21.00
2019-06-27T22:20:16.030Z,20.90
2019-06-27T22:22:43.871Z,20.90
2019-06-27T22:25:11.618Z,20.80
2019-06-27T22:27:38.883Z,20.80
2019-06-27T22:30:06.264Z,20.70
2019-06-27T22:32:33.984Z,20.70
2019-06-27T22:35:01.969Z,20.60
2019-06-27T22:37:30.250Z,20.60
2019-06-27T22:40:16.405Z,20.50
2019-06-27T22:43:04.339Z,20.50
2019-06-27T22:45:49.520Z,20.40
2019-06-27T22:48:16.325Z,20.40
2019-06-27T22:51:10.530Z,20.30
2019-06-27T22:53:58.183Z,20.30
2019-06-27T22:56:25.651Z,20.30
2019-06-27T22:58:53.122Z,20.20
2019-06-27T23:01:20.860Z,20.20
2019-06-27T23:03:48.017Z,20.20
2019-06-27T23:06:14.925Z,20.20
2019-06-27T23:08:42.415Z,20.10
2019-06-27T23:11:10.496Z,20.10
2019-06-27T23:13:38.165Z,20.00
2019-06-27T23:16:05.333Z,19.90
2019-06-27T23:18:32.698Z,19.90
2019-06-27T23:20:59.915Z,19.80
2019-06-27T23:23:27.680Z,19.70
2019-06-27T23:25:54.766Z,19.70
2019-06-27T23:28:21.677Z,19.60
2019-06-27T23:30:48.953Z,19.60
2019-06-27T23:33:16.434Z,19.50
2019-06-27T23:35:43.816Z,19.50
2019-06-27T23:38:11.275Z,19.40
2019-06-27T23:40:38.608Z,19.40
2019-06-27T23:43:05.814Z,19.30
2019-06-27T23:45:33.231Z,19.30
2019-06-27T23:48:00.435Z,19.30
2019-06-27T23:50:27.362Z,19.30
2019-06-27T23:52:54.292Z,19.30
2019-06-27T23:55:25.323Z,19.20
2019-06-27T23:57:54.735Z,19.20
